createdAt,value
2022-09-01T00:00:17.832Z,606
2022-09-01T00:02:17.689Z,637
2022-09-01T00:04:17.588Z,702
2022-09-01T00:06:17.412Z,716
2022-09-01T00:08:18.410Z,654
2022-09-01T00:10:18.485Z,650
2022-09-01T00:12:18.235Z,737
2022-09-01T00:14:24.802Z,527
2022-09-01T00:16:17.600Z,693
2022-09-01T00:18:17.871Z,702
2022-09-01T00:20:20.400Z,632
2022-09-01T00:22:17.370Z,751
2022-09-01T00:24:18.170Z,504
2022-09-01T00:26:17.957Z,579
2022-09-01T00:28:18.109Z,489
2022-09-01T00:30:17.883Z,491
2022-09-01T00:32:17.757Z,693
2022-09-01T00:34:17.567Z,486
2022-09-01T00:36:17.399Z,530
2022-09-01T00:38:18.231Z,603
2022-09-01T00:40:18.190Z,712
2022-09-01T00:42:18.384Z,627
2022-09-01T00:44:18.210Z,634
2022-09-01T00:46:18.284Z,647
2022-09-01T00:48:18.257Z,466
2022-09-01T00:50:18.073Z,450
2022-09-01T00:52:17.861Z,558
2022-09-01T00:54:17.571Z,565
2022-09-01T00:56:17.360Z,731
2022-09-01T00:58:18.480Z,532
2022-09-01T01:00:17.883Z,557
2022-09-01T01:02:17.693Z,697
2022-09-01T01:04:17.539Z,646
2022-09-01T01:06:18.391Z,628
2022-09-01T01:08:18.476Z,591
2022-09-01T01:10:18.337Z,597
2022-09-01T01:12:18.102Z,649
2022-09-01T01:14:17.980Z,662
2022-09-01T01:16:17.452Z,684
2022-09-01T01:18:22.836Z,611
2022-09-01T01:20:17.424Z,679
2022-09-01T01:22:18.213Z,713
2022-09-01T01:24:18.063Z,589
2022-09-01T01:26:18.085Z,538
2022-09-01T01:28:17.854Z,577
2022-09-01T01:30:17.779Z,551
2022-09-01T01:32:17.600Z,685
2022-09-01T01:34:18.028Z,485
2022-09-01T01:36:17.851Z,605
2022-09-01T01:38:17.754Z,582
2022-09-01T01:40:18.102Z,577
2022-09-01T01:42:18.056Z,544
2022-09-01T01:44:17.934Z,589
2022-09-01T01:46:17.738Z,594
2022-09-01T01:48:17.571Z,664
2022-09-01T01:50:17.351Z,620
2022-09-01T01:52:18.233Z,575
2022-09-01T01:54:17.975Z,615
2022-09-01T01:56:17.767Z,654
2022-09-01T01:58:17.636Z,713
2022-09-01T02:00:17.477Z,634
2022-09-01T02:02:17.902Z,502
2022-09-01T02:04:17.715Z,601
2022-09-01T02:06:17.744Z,622
2022-09-01T02:08:17.681Z,608
2022-09-01T02:10:17.847Z,538
2022-09-01T02:12:17.645Z,679
2022-09-01T02:14:17.488Z,555
2022-09-01T02:16:17.576Z,611
2022-09-01T02:18:18.152Z,503
2022-09-01T02:20:18.089Z,600
2022-09-01T02:22:17.815Z,634
2022-09-01T02:24:17.695Z,554
2022-09-01T02:26:17.965Z,627
2022-09-01T02:28:17.885Z,688
2022-09-01T02:30:17.772Z,693
2022-09-01T02:32:17.970Z,578
2022-09-01T02:34:17.876Z,658
2022-09-01T02:36:17.632Z,681
2022-09-01T02:38:18.126Z,656
2022-09-01T02:40:18.261Z,506
2022-09-01T02:42:17.503Z,685
2022-09-01T02:44:18.294Z,687
2022-09-01T02:46:18.312Z,657
2022-09-01T02:48:18.604Z,749
2022-09-01T02:50:17.613Z,685
2022-09-01T02:52:17.964Z,640
2022-09-01T02:54:17.767Z,621
2022-09-01T02:56:17.816Z,641
2022-09-01T02:58:17.908Z,710
2022-09-01T03:00:17.622Z,581
2022-09-01T03:02:17.340Z,564
2022-09-01T03:04:18.088Z,712
2022-09-01T03:06:17.910Z,537
2022-09-01T03:08:17.871Z,705
2022-09-01T03:10:17.916Z,596
2022-09-01T03:12:17.396Z,633
2022-09-01T03:14:18.234Z,565
2022-09-01T03:16:18.134Z,582
2022-09-01T03:18:18.248Z,632
2022-09-01T03:20:18.112Z,623
2022-09-01T03:22:17.909Z,551
2022-09-01T03:24:18.046Z,578
2022-09-01T03:26:18.037Z,562
2022-09-01T03:28:19.507Z,674
2022-09-01T03:30:18.187Z,633
2022-09-01T03:32:17.505Z,587
2022-09-01T03:34:19.025Z,606
2022-09-01T03:36:18.266Z,581
2022-09-01T03:38:17.354Z,605
2022-09-01T03:40:17.437Z,630
2022-09-01T03:42:17.431Z,570
2022-09-01T03:44:18.344Z,665
2022-09-01T03:46:18.447Z,615
2022-09-01T03:48:18.412Z,618
2022-09-01T03:50:19.093Z,693
2022-09-01T03:52:18.166Z,664
2022-09-01T03:54:18.072Z,545
2022-09-01T03:56:17.817Z,703
2022-09-01T03:58:17.589Z,599
2022-09-01T04:00:17.471Z,506
2022-09-01T04:02:18.314Z,711
2022-09-01T04:04:18.078Z,707
2022-09-01T04:06:17.898Z,608
2022-09-01T04:08:17.708Z,648
2022-09-01T04:10:17.443Z,789
2022-09-01T04:12:18.240Z,686
2022-09-01T04:14:18.009Z,795
2022-09-01T04:16:18.416Z,676
2022-09-01T04:18:17.396Z,708
2022-09-01T04:20:18.211Z,725
2022-09-01T04:22:17.754Z,856
2022-09-01T04:24:17.572Z,672
2022-09-01T04:26:18.130Z,799
2022-09-01T04:28:18.308Z,719
2022-09-01T04:30:18.159Z,798
2022-09-01T04:32:18.014Z,749
2022-09-01T04:34:17.748Z,662
2022-09-01T04:36:18.203Z,742
2022-09-01T04:38:18.092Z,791
2022-09-01T04:40:17.942Z,713
2022-09-01T04:42:17.756Z,694
2022-09-01T04:44:17.905Z,637
2022-09-01T04:46:18.142Z,719
2022-09-01T04:48:17.973Z,736
2022-09-01T04:50:18.151Z,741
2022-09-01T04:52:18.051Z,792
2022-09-01T04:54:17.832Z,651
2022-09-01T04:56:17.981Z,756
2022-09-01T04:58:17.834Z,708
2022-09-01T05:00:17.628Z,656
2022-09-01T05:02:17.450Z,764
2022-09-01T05:04:18.221Z,661
2022-09-01T05:06:18.009Z,824
2022-09-01T05:08:23.004Z,626
2022-09-01T05:10:17.781Z,727
2022-09-01T05:12:17.588Z,588
2022-09-01T05:14:17.660Z,683
2022-09-01T05:16:21.476Z,700
2022-09-01T05:18:17.810Z,655
2022-09-01T05:20:17.673Z,703
2022-09-01T05:22:17.514Z,686
2022-09-01T05:24:17.535Z,554
2022-09-01T05:26:18.298Z,625
2022-09-01T05:28:18.248Z,606
2022-09-01T05:30:18.182Z,537
2022-09-01T05:32:18.060Z,537
2022-09-01T05:34:18.005Z,561
2022-09-01T05:36:18.286Z,536
2022-09-01T05:38:18.130Z,524
2022-09-01T05:40:18.023Z,476
2022-09-01T05:42:17.556Z,477
2022-09-01T05:44:17.393Z,450
2022-09-01T05:46:18.302Z,600
2022-09-01T05:48:18.305Z,538
2022-09-01T05:50:18.136Z,548
2022-09-01T05:52:17.942Z,578
2022-09-01T05:54:17.576Z,530
2022-09-01T05:56:17.408Z,460
2022-09-01T05:58:18.204Z,588
2022-09-01T06:00:18.004Z,561
2022-09-01T06:02:18.050Z,544
2022-09-01T06:04:18.176Z,616
2022-09-01T06:06:18.175Z,641
2022-09-01T06:08:18.108Z,589
2022-09-01T06:10:18.021Z,571
2022-09-01T06:12:18.776Z,582
2022-09-01T06:14:17.790Z,610
2022-09-01T06:16:17.632Z,563
2022-09-01T06:18:18.010Z,596
2022-09-01T06:20:17.946Z,660
2022-09-01T06:22:17.854Z,637
2022-09-01T06:24:18.196Z,619
2022-09-01T06:26:18.188Z,624
2022-09-01T06:28:18.039Z,625
2022-09-01T06:30:22.667Z,495
2022-09-01T06:32:18.194Z,676
2022-09-01T06:34:18.036Z,654
2022-09-01T06:36:17.773Z,631
2022-09-01T06:38:17.549Z,604
2022-09-01T06:40:17.528Z,654
2022-09-01T06:42:18.283Z,753
2022-09-01T06:44:18.134Z,638
2022-09-01T06:46:18.015Z,775
2022-09-01T06:48:17.857Z,751
2022-09-01T06:51:14.365Z,729
2022-09-01T06:52:17.804Z,679
2022-09-01T06:54:20.767Z,698
2022-09-01T06:56:17.941Z,747
2022-09-01T06:58:17.822Z,769
2022-09-01T07:00:19.125Z,750
2022-09-01T07:02:18.282Z,779
2022-09-01T07:04:18.141Z,773
2022-09-01T07:08:17.799Z,755
2022-09-01T07:10:18.755Z,880
2022-09-01T07:12:25.876Z,782
2022-09-01T07:14:17.981Z,890
2022-09-01T07:16:34.724Z,827
2022-09-01T07:18:18.379Z,754
2022-09-01T07:20:25.744Z,864
2022-09-01T07:24:17.467Z,933
2022-09-01T07:26:24.561Z,873
2022-09-01T07:28:18.258Z,932
2022-09-01T07:30:18.068Z,931
2022-09-01T07:36:25.767Z,756
2022-09-01T07:44:17.572Z,905
2022-09-01T07:48:35.412Z,932
2022-09-01T07:52:17.826Z,820
2022-09-01T07:54:17.482Z,957
2022-09-01T07:56:18.402Z,870
2022-09-01T07:58:18.201Z,858
2022-09-01T08:00:17.978Z,909
2022-09-01T08:02:17.860Z,789
2022-09-01T08:04:18.150Z,960
2022-09-01T08:06:17.898Z,889
2022-09-01T08:08:19.110Z,949
2022-09-01T08:10:20.087Z,761
2022-09-01T08:12:17.946Z,872
2022-09-01T08:14:18.061Z,823
2022-09-01T08:16:18.406Z,922
2022-09-01T08:18:17.834Z,779
2022-09-01T08:20:17.964Z,902
2022-09-01T08:22:17.778Z,925
2022-09-01T08:24:17.980Z,774
2022-09-01T08:26:17.417Z,788
2022-09-01T08:28:26.319Z,863
2022-09-01T08:30:17.582Z,849
2022-09-01T08:32:17.499Z,893
2022-09-01T08:34:17.684Z,772
2022-09-01T08:36:21.475Z,938
2022-09-01T08:38:18.494Z,784
2022-09-01T08:40:17.640Z,883
2022-09-01T08:42:17.532Z,811
2022-09-01T08:44:19.306Z,876
2022-09-01T08:46:18.247Z,901
2022-09-01T08:50:17.940Z,798
2022-09-01T08:52:17.728Z,794
2022-09-01T08:54:20.124Z,807
2022-09-01T08:56:18.375Z,954
2022-09-01T08:58:18.377Z,711
2022-09-01T09:00:18.321Z,891
2022-09-01T09:02:18.105Z,757
2022-09-01T09:04:18.276Z,785
2022-09-01T09:06:18.072Z,906
2022-09-01T09:08:17.913Z,798
2022-09-01T09:10:17.769Z,859
2022-09-01T09:12:18.208Z,949
2022-09-01T09:14:18.343Z,895
2022-09-01T09:16:18.241Z,830
2022-09-01T09:18:20.363Z,866
2022-09-01T09:20:18.231Z,817
2022-09-01T09:22:17.823Z,875
2022-09-01T09:24:21.671Z,704
2022-09-01T09:26:22.201Z,814
2022-09-01T09:28:18.185Z,903
2022-09-01T09:30:18.005Z,802
2022-09-01T09:32:35.448Z,862
2022-09-01T09:34:18.003Z,930
2022-09-01T09:36:17.887Z,860
2022-09-01T09:38:17.736Z,663
2022-09-01T09:40:18.265Z,685
2022-09-01T09:42:17.671Z,835
2022-09-01T09:44:17.926Z,799
2022-09-01T09:46:25.601Z,758
2022-09-01T09:48:17.582Z,846
2022-09-01T09:50:17.353Z,780
2022-09-01T09:52:18.130Z,890
2022-09-01T09:54:17.948Z,820
2022-09-01T09:56:18.104Z,931
2022-09-01T09:58:18.128Z,776
2022-09-01T10:00:17.974Z,833
2022-09-01T10:02:18.329Z,889
2022-09-01T10:04:17.535Z,820
2022-09-01T10:06:17.433Z,941
2022-09-01T10:08:17.632Z,739
2022-09-01T10:10:17.607Z,892
2022-09-01T10:12:17.431Z,878
2022-09-01T10:14:47.474Z,980
2022-09-01T10:16:19.366Z,868
2022-09-01T10:18:22.071Z,863
2022-09-01T10:20:17.466Z,789
2022-09-01T10:22:17.641Z,870
2022-09-01T10:24:20.474Z,745
2022-09-01T10:26:18.827Z,872
2022-09-01T10:28:21.374Z,852
2022-09-01T10:30:19.957Z,881
2022-09-01T10:32:31.786Z,816
2022-09-01T10:34:19.300Z,853
2022-09-01T10:36:17.520Z,944
2022-09-01T10:38:18.361Z,944
2022-09-01T10:40:20.493Z,868
2022-09-01T10:42:19.382Z,896
2022-09-01T10:44:17.806Z,779
2022-09-01T10:46:18.362Z,880
2022-09-01T10:48:29.856Z,749
2022-09-01T10:50:17.811Z,896
2022-09-01T10:52:17.622Z,787
2022-09-01T10:54:17.502Z,897
2022-09-01T10:56:24.905Z,809
2022-09-01T11:02:27.461Z,837
2022-09-01T11:04:17.620Z,930
2022-09-01T11:06:17.528Z,889
2022-09-01T11:08:18.331Z,809
2022-09-01T11:10:34.077Z,909
2022-09-01T11:12:18.199Z,868
2022-09-01T11:14:18.260Z,906
2022-09-01T11:16:45.696Z,854
2022-09-01T11:18:19.305Z,825
2022-09-01T11:20:18.089Z,843
2022-09-01T11:22:17.360Z,837
2022-09-01T11:24:18.166Z,892
2022-09-01T11:26:19.720Z,931
2022-09-01T11:28:18.318Z,898
2022-09-01T11:30:18.172Z,934
2022-09-01T11:32:18.554Z,948
2022-09-01T11:34:17.507Z,852
2022-09-01T11:36:17.918Z,810
2022-09-01T11:38:17.828Z,907
2022-09-01T11:40:18.200Z,827
2022-09-01T11:42:17.951Z,818
2022-09-01T11:44:17.682Z,858
2022-09-01T11:46:17.666Z,844
2022-09-01T11:48:17.703Z,811
2022-09-01T11:50:17.670Z,923
2022-09-01T11:52:17.516Z,747
2022-09-01T11:54:18.028Z,843
2022-09-01T11:56:18.087Z,777
2022-09-01T11:58:18.126Z,742
2022-09-01T12:00:18.115Z,842
2022-09-01T12:02:17.889Z,857
2022-09-01T12:04:17.862Z,874
2022-09-01T12:06:18.310Z,798
2022-09-01T12:08:18.162Z,783
2022-09-01T12:10:17.719Z,696
2022-09-01T12:12:17.564Z,762
2022-09-01T12:14:17.509Z,825
2022-09-01T12:16:19.287Z,768
2022-09-01T12:18:17.382Z,899
2022-09-01T12:20:18.407Z,860
2022-09-01T12:22:18.168Z,827
2022-09-01T12:24:17.997Z,865
2022-09-01T12:26:18.289Z,871
2022-09-01T12:28:18.313Z,659
2022-09-01T12:30:18.099Z,826
2022-09-01T12:32:17.888Z,944
2022-09-01T12:34:18.231Z,884
2022-09-01T12:36:18.011Z,854
2022-09-01T12:38:17.834Z,915
2022-09-01T12:40:17.792Z,785
2022-09-01T12:42:17.979Z,828
2022-09-01T12:44:17.778Z,874
2022-09-01T12:46:17.770Z,792
2022-09-01T12:48:18.058Z,734
2022-09-01T12:50:17.399Z,761
2022-09-01T12:52:19.839Z,809
2022-09-01T12:54:17.935Z,802
2022-09-01T12:56:17.674Z,767
2022-09-01T12:58:17.519Z,851
2022-09-01T13:00:18.295Z,743
2022-09-01T13:02:18.098Z,901
2022-09-01T13:04:17.889Z,804
2022-09-01T13:06:17.677Z,805
2022-09-01T13:08:18.290Z,737
2022-09-01T13:10:18.258Z,783
2022-09-01T13:12:18.045Z,765
2022-09-01T13:14:17.996Z,823
2022-09-01T13:16:18.027Z,841
2022-09-01T13:18:18.262Z,878
2022-09-01T13:20:18.152Z,727
2022-09-01T13:22:18.252Z,750
2022-09-01T13:24:18.053Z,789
2022-09-01T13:26:17.375Z,835
2022-09-01T13:28:17.801Z,823
2022-09-01T13:30:18.034Z,731
2022-09-01T13:32:18.680Z,823
2022-09-01T13:34:21.509Z,739
2022-09-01T13:38:17.951Z,759
2022-09-01T13:40:18.241Z,728
2022-09-01T13:42:17.450Z,800
2022-09-01T13:44:18.299Z,816
2022-09-01T13:46:18.165Z,829
2022-09-01T13:48:18.302Z,716
2022-09-01T13:50:21.516Z,816
2022-09-01T13:52:17.528Z,646
2022-09-01T13:54:18.364Z,739
2022-09-01T13:56:17.703Z,678
2022-09-01T13:58:17.475Z,589
2022-09-01T14:00:18.352Z,805
2022-09-01T14:02:18.192Z,776
2022-09-01T14:04:17.842Z,795
2022-09-01T14:06:17.766Z,705
2022-09-01T14:08:17.706Z,713
2022-09-01T14:10:17.671Z,765
2022-09-01T14:12:17.402Z,665
2022-09-01T14:14:22.501Z,740
2022-09-01T14:16:18.449Z,757
2022-09-01T14:18:17.576Z,753
2022-09-01T14:20:17.359Z,674
2022-09-01T14:22:18.102Z,793
2022-09-01T14:24:17.959Z,688
2022-09-01T14:26:17.769Z,768
2022-09-01T14:28:23.346Z,683
2022-09-01T14:30:17.853Z,766
2022-09-01T14:32:17.682Z,710
2022-09-01T14:34:17.477Z,766
2022-09-01T14:36:17.690Z,788
2022-09-01T14:38:18.203Z,760
2022-09-01T14:40:18.041Z,718
2022-09-01T14:42:17.824Z,726
2022-09-01T14:44:17.865Z,675
2022-09-01T14:46:17.832Z,745
2022-09-01T14:48:17.895Z,732
2022-09-01T14:50:19.809Z,684
2022-09-01T14:52:17.776Z,723
2022-09-01T14:54:17.944Z,676
2022-09-01T14:56:17.756Z,762
2022-09-01T14:58:17.518Z,761
2022-09-01T15:00:18.341Z,760
2022-09-01T15:02:17.463Z,623
2022-09-01T15:04:18.328Z,673
2022-09-01T15:06:18.234Z,685
2022-09-01T15:08:18.092Z,693
2022-09-01T15:10:23.521Z,798
2022-09-01T15:12:17.694Z,762
2022-09-01T15:14:17.579Z,744
2022-09-01T15:16:17.765Z,741
2022-09-01T15:18:17.980Z,771
2022-09-01T15:20:17.854Z,748
2022-09-01T15:22:17.803Z,679
2022-09-01T15:24:17.616Z,652
2022-09-01T15:26:17.395Z,703
2022-09-01T15:28:17.479Z,660
2022-09-01T15:30:18.371Z,666
2022-09-01T15:32:20.887Z,664
2022-09-01T15:34:17.696Z,766
2022-09-01T15:36:17.473Z,730
2022-09-01T15:38:18.479Z,632
2022-09-01T15:40:18.409Z,561
2022-09-01T15:42:18.211Z,633
2022-09-01T15:44:18.091Z,735
2022-09-01T15:46:18.012Z,674
2022-09-01T15:48:17.852Z,733
2022-09-01T15:50:21.015Z,635
2022-09-01T15:52:17.919Z,726
2022-09-01T15:54:17.827Z,735
2022-09-01T15:56:17.599Z,653
2022-09-01T15:58:17.480Z,689
2022-09-01T16:00:18.105Z,596
2022-09-01T16:02:18.056Z,651
2022-09-01T16:04:27.337Z,597
2022-09-01T16:06:18.408Z,679
2022-09-01T16:08:18.248Z,602
2022-09-01T16:10:18.109Z,518
2022-09-01T16:12:17.969Z,638
2022-09-01T16:14:17.965Z,680
2022-09-01T16:16:17.801Z,695
2022-09-01T16:18:17.760Z,677
2022-09-01T16:20:17.550Z,616
2022-09-01T16:22:18.308Z,718
2022-09-01T16:24:18.340Z,604
2022-09-01T16:26:18.077Z,602
2022-09-01T16:28:17.852Z,638
2022-09-01T16:30:17.963Z,682
2022-09-01T16:32:17.867Z,658
2022-09-01T16:34:17.674Z,617
2022-09-01T16:36:17.948Z,608
2022-09-01T16:38:17.803Z,733
2022-09-01T16:40:18.188Z,657
2022-09-01T16:42:17.974Z,646
2022-09-01T16:44:17.998Z,499
2022-09-01T16:46:17.763Z,716
2022-09-01T16:48:17.681Z,659
2022-09-01T16:50:17.901Z,671
2022-09-01T16:52:17.762Z,730
2022-09-01T16:54:17.524Z,694
2022-09-01T16:56:17.340Z,473
2022-09-01T16:58:18.985Z,656
2022-09-01T17:00:18.404Z,583
2022-09-01T17:02:18.116Z,609
2022-09-01T17:04:17.491Z,641
2022-09-01T17:06:17.693Z,645
2022-09-01T17:08:17.494Z,616
2022-09-01T17:10:19.228Z,594
2022-09-01T17:12:17.784Z,599
2022-09-01T17:14:17.817Z,604
2022-09-01T17:16:17.927Z,584
2022-09-01T17:18:21.962Z,635
2022-09-01T17:20:17.693Z,630
2022-09-01T17:22:17.734Z,614
2022-09-01T17:24:17.850Z,647
2022-09-01T17:26:17.733Z,657
2022-09-01T17:28:17.799Z,720
2022-09-01T17:30:17.569Z,663
2022-09-01T17:32:18.430Z,672
2022-09-01T17:34:18.309Z,643
2022-09-01T17:36:18.170Z,552
2022-09-01T17:38:17.488Z,657
2022-09-01T17:40:17.809Z,642
2022-09-01T17:42:17.782Z,605
2022-09-01T17:44:17.599Z,659
2022-09-01T17:46:17.528Z,708
2022-09-01T17:48:18.549Z,700
2022-09-01T17:50:17.343Z,629
2022-09-01T17:52:18.196Z,552
2022-09-01T17:54:17.669Z,624
2022-09-01T17:56:17.722Z,606
2022-09-01T17:58:17.491Z,680
2022-09-01T18:00:18.280Z,609
2022-09-01T18:02:18.122Z,729
2022-09-01T18:04:17.906Z,596
2022-09-01T18:06:17.710Z,627
2022-09-01T18:08:17.679Z,655
2022-09-01T18:10:17.579Z,703
2022-09-01T18:12:17.970Z,713
2022-09-01T18:14:17.769Z,596
2022-09-01T18:16:17.709Z,644
2022-09-01T18:18:18.317Z,586
2022-09-01T18:20:18.117Z,633
2022-09-01T18:22:17.946Z,668
2022-09-01T18:24:17.815Z,598
2022-09-01T18:26:17.585Z,587
2022-09-01T18:28:17.793Z,663
2022-09-01T18:30:22.377Z,704
2022-09-01T18:32:17.935Z,664
2022-09-01T18:34:17.783Z,746
2022-09-01T18:36:17.570Z,706
2022-09-01T18:38:17.391Z,590
2022-09-01T18:40:18.234Z,606
2022-09-01T18:42:17.994Z,571
2022-09-01T18:44:17.803Z,686
2022-09-01T18:46:17.602Z,632
2022-09-01T18:48:17.469Z,635
2022-09-01T18:50:18.252Z,705
2022-09-01T18:52:17.846Z,677
2022-09-01T18:54:17.844Z,590
2022-09-01T18:56:17.673Z,583
2022-09-01T18:58:17.511Z,648
2022-09-01T19:00:18.008Z,640
2022-09-01T19:02:18.275Z,755
2022-09-01T19:04:18.225Z,677
2022-09-01T19:06:18.079Z,653
2022-09-01T19:08:18.211Z,699
2022-09-01T19:10:18.530Z,450
2022-09-01T19:12:18.121Z,590
2022-09-01T19:14:17.943Z,580
2022-09-01T19:16:17.739Z,533
2022-09-01T19:18:18.034Z,748
2022-09-01T19:20:17.802Z,673
2022-09-01T19:22:17.662Z,629
2022-09-01T19:24:17.831Z,730
2022-09-01T19:26:17.853Z,719
2022-09-01T19:28:17.714Z,796
2022-09-01T19:30:17.717Z,773
2022-09-01T19:32:17.653Z,763
2022-09-01T19:34:17.484Z,796
2022-09-01T19:36:18.324Z,778
2022-09-01T19:38:18.092Z,774
2022-09-01T19:40:18.202Z,759
2022-09-01T19:42:17.828Z,718
2022-09-01T19:44:17.690Z,836
2022-09-01T19:46:17.565Z,880
2022-09-01T19:48:18.418Z,920
2022-09-01T19:50:17.823Z,972
2022-09-01T19:52:17.577Z,865
2022-09-01T19:54:18.072Z,986
2022-09-01T19:56:17.916Z,896
2022-09-01T19:58:17.764Z,925
2022-09-01T20:00:17.722Z,1010
2022-09-01T20:02:18.360Z,1046
2022-09-01T20:04:18.233Z,873
2022-09-01T20:06:18.062Z,944
2022-09-01T20:08:17.873Z,1084
2022-09-01T20:10:17.757Z,1024
2022-09-01T20:12:17.842Z,916
2022-09-01T20:14:17.908Z,933
2022-09-01T20:16:18.191Z,983
2022-09-01T20:18:18.190Z,926
2022-09-01T20:20:17.980Z,906
2022-09-01T20:22:17.847Z,968
2022-09-01T20:24:17.692Z,966
2022-09-01T20:26:17.702Z,902
2022-09-01T20:28:17.575Z,926
2022-09-01T20:30:17.636Z,964
2022-09-01T20:32:17.758Z,970
2022-09-01T20:34:17.553Z,941
2022-09-01T20:36:18.344Z,889
2022-09-01T20:38:18.053Z,820
2022-09-01T20:40:18.280Z,882
2022-09-01T20:42:18.214Z,855
2022-09-01T20:44:17.971Z,929
2022-09-01T20:46:17.925Z,932
2022-09-01T20:48:17.795Z,949
2022-09-01T20:50:17.970Z,801
2022-09-01T20:52:17.780Z,981
2022-09-01T20:54:17.976Z,912
2022-09-01T20:56:17.779Z,995
2022-09-01T20:58:17.537Z,956
2022-09-01T21:00:17.925Z,844
2022-09-01T21:02:17.919Z,836
2022-09-01T21:04:18.133Z,885
2022-09-01T21:06:17.997Z,841
2022-09-01T21:08:17.859Z,926
2022-09-01T21:10:18.046Z,926
2022-09-01T21:12:17.935Z,1012
2022-09-01T21:14:17.918Z,985
2022-09-01T21:16:18.180Z,987
2022-09-01T21:18:18.196Z,912
2022-09-01T21:20:17.954Z,920
2022-09-01T21:22:21.888Z,935
2022-09-01T21:24:17.973Z,924
2022-09-01T21:26:17.718Z,839
2022-09-01T21:28:17.787Z,933
2022-09-01T21:30:17.641Z,985
2022-09-01T21:32:17.747Z,901
2022-09-01T21:34:17.562Z,879
2022-09-01T21:36:17.844Z,872
2022-09-01T21:38:17.896Z,862
2022-09-01T21:40:17.932Z,919
2022-09-01T21:42:17.797Z,790
2022-09-01T21:44:17.397Z,799
2022-09-01T21:46:18.287Z,874
2022-09-01T21:48:18.129Z,869
2022-09-01T21:50:17.923Z,880
2022-09-01T21:52:17.919Z,904
2022-09-01T21:54:17.843Z,957
2022-09-01T21:56:18.016Z,876
2022-09-01T21:58:17.495Z,856
2022-09-01T22:00:18.325Z,741
2022-09-01T22:02:18.468Z,991
2022-09-01T22:04:18.336Z,841
2022-09-01T22:06:17.325Z,874
2022-09-01T22:08:18.250Z,858
2022-09-01T22:10:18.109Z,859
2022-09-01T22:12:17.872Z,826
2022-09-01T22:14:17.701Z,804
2022-09-01T22:16:17.928Z,879
2022-09-01T22:18:17.975Z,704
2022-09-01T22:20:17.789Z,849
2022-09-01T22:22:17.649Z,909
2022-09-01T22:24:19.256Z,844
2022-09-01T22:26:17.380Z,857
2022-09-01T22:28:18.297Z,771
2022-09-01T22:30:18.177Z,873
2022-09-01T22:32:18.052Z,860
2022-09-01T22:34:18.093Z,903
2022-09-01T22:36:17.899Z,901
2022-09-01T22:38:17.727Z,879
2022-09-01T22:40:18.228Z,930
2022-09-01T22:42:18.343Z,755
2022-09-01T22:44:18.257Z,890
2022-09-01T22:46:17.497Z,757
2022-09-01T22:48:18.110Z,908
2022-09-01T22:50:17.916Z,860
2022-09-01T22:52:18.306Z,808
2022-09-01T22:54:17.582Z,777
2022-09-01T22:56:17.420Z,665
2022-09-01T22:58:17.367Z,829
2022-09-01T23:00:18.219Z,885
2022-09-01T23:02:17.450Z,704
2022-09-01T23:04:18.444Z,902
2022-09-01T23:06:20.276Z,874
2022-09-01T23:08:17.543Z,794
2022-09-01T23:10:18.428Z,934
2022-09-01T23:12:18.291Z,827
2022-09-01T23:14:18.222Z,711
2022-09-01T23:16:17.520Z,809
2022-09-01T23:18:17.676Z,827
2022-09-01T23:20:18.651Z,903
2022-09-01T23:22:17.692Z,911
2022-09-01T23:24:18.382Z,696
2022-09-01T23:26:17.789Z,842
2022-09-01T23:28:17.691Z,886
2022-09-01T23:30:17.627Z,749
2022-09-01T23:32:17.484Z,695
2022-09-01T23:34:18.335Z,771
2022-09-01T23:36:17.442Z,950
2022-09-01T23:38:18.279Z,805
2022-09-01T23:40:18.289Z,883
2022-09-01T23:42:18.121Z,819
2022-09-01T23:44:18.054Z,657
2022-09-01T23:46:17.940Z,902
2022-09-01T23:48:18.164Z,912
2022-09-01T23:50:18.092Z,840
2022-09-01T23:52:18.378Z,834
2022-09-01T23:54:17.428Z,916
2022-09-01T23:56:18.293Z,675
2022-09-01T23:58:18.122Z,887
